Time;durP1;ratioP1;P1;durP2;ratioP2;P2;SDS_P1;SDS_P2;PMS_P1;PMS_P2;Temp;Humidity;BMP_temperature;BMP_pressure;BME280_temperature;BME280_humidity;BME280_pressure;Samples;Min_cycle;Max_cycle;Signal;HPM_P1;HPM_P2
2021/10/26 00:01:24;;;;;;;7.47;4.75;;;;;;;;;;6276357;22;20142;-62
2021/10/26 00:03:50;;;;;;;7.30;5.50;;;;;;;;;;6276525;22;20159;-62
2021/10/26 00:06:16;;;;;;;5.97;5.05;;;;;;;;;;6276759;22;20158;-62
2021/10/26 00:08:42;;;;;;;6.30;5.13;;;;;;;;;;6276082;22;20171;-61
2021/10/26 00:11:08;;;;;;;6.15;4.97;;;;;;;;;;6276227;22;20196;-62
2021/10/26 00:13:34;;;;;;;9.75;5.38;;;;;;;;;;6276149;22;20136;-61
2021/10/26 00:16:00;;;;;;;6.68;5.30;;;;;;;;;;6276155;22;20142;-62
2021/10/26 00:18:26;;;;;;;7.68;5.25;;;;;;;;;;6275978;22;20157;-62
2021/10/26 00:20:52;;;;;;;6.97;5.75;;;;;;;;;;6276397;22;20178;-61
2021/10/26 00:23:18;;;;;;;6.20;5.25;;;;;;;;;;6275981;22;20143;-62
2021/10/26 00:25:44;;;;;;;7.65;5.43;;;;;;;;;;6276181;22;20470;-62
2021/10/26 00:28:10;;;;;;;7.90;5.13;;;;;;;;;;6276046;22;20174;-62
2021/10/26 00:30:36;;;;;;;8.25;5.53;;;;;;;;;;6276033;22;20554;-62
2021/10/26 00:33:02;;;;;;;7.40;5.78;;;;;;;;;;6276295;22;20143;-62
2021/10/26 00:35:28;;;;;;;6.15;5.55;;;;;;;;;;6276391;22;20135;-61
2021/10/26 00:38:00;;;;;;;8.23;5.88;;;;;;;;;;6276273;22;20179;-62
2021/10/26 00:40:26;;;;;;;8.35;6.10;;;;;;;;;;6277626;22;20128;-62
2021/10/26 00:42:52;;;;;;;6.60;5.45;;;;;;;;;;6277831;22;20143;-62
2021/10/26 00:45:18;;;;;;;7.32;5.80;;;;;;;;;;6278242;22;20224;-62
2021/10/26 00:47:44;;;;;;;7.80;5.68;;;;;;;;;;6278016;22;20575;-61
2021/10/26 00:50:11;;;;;;;7.22;5.55;;;;;;;;;;6278005;22;20220;-62
2021/10/26 00:52:37;;;;;;;9.32;6.15;;;;;;;;;;6277774;22;20144;-62
2021/10/26 00:55:04;;;;;;;7.32;5.75;;;;;;;;;;6278182;22;20224;-62
2021/10/26 00:57:31;;;;;;;6.70;5.50;;;;;;;;;;6277645;22;20197;-62
2021/10/26 00:59:56;;;;;;;7.80;5.65;;;;;;;;;;6277758;22;20154;-61
2021/10/26 01:02:23;;;;;;;7.63;5.35;;;;;;;;;;6277823;22;20148;-62
2021/10/26 01:04:48;;;;;;;9.52;5.90;;;;;;;;;;6278053;22;20630;-61
2021/10/26 01:07:15;;;;;;;9.50;5.57;;;;;;;;;;6286055;22;20194;-62
2021/10/26 01:09:41;;;;;;;6.50;5.57;;;;;;;;;;6277880;22;20140;-61
2021/10/26 01:12:07;;;;;;;8.95;5.63;;;;;;;;;;6277528;22;20150;-62
2021/10/26 01:14:33;;;;;;;7.95;5.70;;;;;;;;;;6277544;22;20552;-62
2021/10/26 01:17:03;;;;;;;10.48;5.53;;;;;;;;;;6277639;22;20630;-62
2021/10/26 01:19:42;;;;;;;6.85;5.43;;;;;;;;;;6277992;22;20150;-61
2021/10/26 01:22:08;;;;;;;6.93;5.55;;;;;;;;;;6277793;22;20434;-61
2021/10/26 01:24:34;;;;;;;8.32;5.85;;;;;;;;;;6277452;22;20140;-62
2021/10/26 01:27:00;;;;;;;9.95;6.25;;;;;;;;;;6277346;22;20181;-62
2021/10/26 01:29:25;;;;;;;7.47;5.93;;;;;;;;;;6277363;22;20609;-62
2021/10/26 01:31:51;;;;;;;6.95;5.85;;;;;;;;;;6277397;22;20136;-61
2021/10/26 01:34:17;;;;;;;8.20;5.78;;;;;;;;;;6277256;22;20328;-62
2021/10/26 01:36:43;;;;;;;10.85;6.47;;;;;;;;;;6277706;22;20139;-62
2021/10/26 01:39:09;;;;;;;5.90;5.30;;;;;;;;;;6277566;22;20476;-61
2021/10/26 01:41:35;;;;;;;10.25;5.75;;;;;;;;;;6277305;22;20551;-62
2021/10/26 01:44:01;;;;;;;9.75;5.80;;;;;;;;;;6277932;22;20140;-61
2021/10/26 01:46:27;;;;;;;8.02;5.90;;;;;;;;;;6277621;22;20140;-62
2021/10/26 01:48:53;;;;;;;7.63;5.70;;;;;;;;;;6277541;22;20439;-61
2021/10/26 01:51:19;;;;;;;7.60;5.63;;;;;;;;;;6277324;22;20539;-62
2021/10/26 01:53:45;;;;;;;8.00;5.68;;;;;;;;;;6277363;22;20182;-61
2021/10/26 01:56:11;;;;;;;7.53;5.30;;;;;;;;;;6277349;22;20135;-62
2021/10/26 01:58:37;;;;;;;9.13;5.10;;;;;;;;;;6277097;22;20144;-62
2021/10/26 02:01:02;;;;;;;6.80;4.97;;;;;;;;;;6277102;22;20209;-62
2021/10/26 02:03:28;;;;;;;7.68;5.72;;;;;;;;;;6277086;22;20143;-62
2021/10/26 02:05:54;;;;;;;7.88;5.75;;;;;;;;;;6277107;22;20144;-61
2021/10/26 02:08:20;;;;;;;9.85;6.00;;;;;;;;;;6276806;22;20619;-62
2021/10/26 02:10:46;;;;;;;6.75;5.65;;;;;;;;;;6277070;22;20168;-62
2021/10/26 02:13:14;;;;;;;8.02;5.50;;;;;;;;;;6276925;22;20223;-62
2021/10/26 02:15:40;;;;;;;6.22;5.40;;;;;;;;;;6277395;22;20166;-62
2021/10/26 02:18:06;;;;;;;8.90;5.60;;;;;;;;;;6276876;22;20297;-62
2021/10/26 02:20:33;;;;;;;10.23;5.82;;;;;;;;;;6276779;22;20167;-62
2021/10/26 02:22:59;;;;;;;11.40;5.57;;;;;;;;;;6277233;22;20266;-61
2021/10/26 02:25:25;;;;;;;7.97;5.60;;;;;;;;;;6276691;22;20209;-61
2021/10/26 02:27:50;;;;;;;9.05;6.38;;;;;;;;;;6277211;22;20231;-62
2021/10/26 02:30:16;;;;;;;9.57;6.22;;;;;;;;;;6277051;22;20143;-62
2021/10/26 02:32:42;;;;;;;8.48;5.88;;;;;;;;;;6277087;22;20139;-62
2021/10/26 02:35:08;;;;;;;8.75;5.80;;;;;;;;;;6277218;22;20154;-62
2021/10/26 02:37:34;;;;;;;7.93;5.70;;;;;;;;;;6277116;22;20143;-62
2021/10/26 02:40:00;;;;;;;8.85;6.10;;;;;;;;;;6276679;22;20201;-61
2021/10/26 02:42:26;;;;;;;10.18;5.93;;;;;;;;;;6277187;22;20152;-62
2021/10/26 02:44:52;;;;;;;7.85;6.00;;;;;;;;;;6277166;22;20382;-62
2021/10/26 02:47:18;;;;;;;9.27;6.43;;;;;;;;;;6277203;22;20246;-62
2021/10/26 02:49:44;;;;;;;8.95;6.30;;;;;;;;;;6277322;22;20159;-61
2021/10/26 02:52:10;;;;;;;7.65;6.15;;;;;;;;;;6277024;22;20441;-61
2021/10/26 02:54:36;;;;;;;8.65;6.68;;;;;;;;;;6277141;22;20136;-61
2021/10/26 02:57:01;;;;;;;10.70;6.70;;;;;;;;;;6277552;22;20170;-62
2021/10/26 02:59:27;;;;;;;8.25;6.60;;;;;;;;;;6277004;22;20198;-62
2021/10/26 03:01:53;;;;;;;9.32;6.90;;;;;;;;;;6276491;22;20543;-62
2021/10/26 03:04:19;;;;;;;9.18;6.35;;;;;;;;;;6277241;22;20208;-62
2021/10/26 03:06:45;;;;;;;8.95;6.90;;;;;;;;;;6277054;22;20174;-62
2021/10/26 03:09:11;;;;;;;13.48;8.00;;;;;;;;;;6277107;22;20478;-62
2021/10/26 03:11:38;;;;;;;10.15;7.20;;;;;;;;;;6276831;22;20185;-62
2021/10/26 03:14:05;;;;;;;11.43;7.13;;;;;;;;;;6277038;22;20146;-62
2021/10/26 03:16:30;;;;;;;8.80;7.43;;;;;;;;;;6276626;22;20624;-62
2021/10/26 03:18:56;;;;;;;11.73;7.47;;;;;;;;;;6276897;22;20143;-62
2021/10/26 03:21:22;;;;;;;9.10;6.97;;;;;;;;;;6278689;22;20439;-62
2021/10/26 03:23:48;;;;;;;8.57;6.97;;;;;;;;;;6276443;22;20151;-62
2021/10/26 03:26:15;;;;;;;8.95;7.57;;;;;;;;;;6276519;22;20230;-62
2021/10/26 03:28:40;;;;;;;11.13;7.97;;;;;;;;;;6276508;22;20177;-62
2021/10/26 03:31:06;;;;;;;11.43;7.25;;;;;;;;;;6276400;22;20210;-62
2021/10/26 03:33:33;;;;;;;12.65;8.23;;;;;;;;;;6276747;22;20148;-61
2021/10/26 03:36:04;;;;;;;12.90;8.55;;;;;;;;;;6276458;22;20147;-62
2021/10/26 03:38:31;;;;;;;11.25;7.95;;;;;;;;;;6276831;22;20476;-62
2021/10/26 03:40:57;;;;;;;11.10;8.20;;;;;;;;;;6276658;22;20147;-62
2021/10/26 03:43:23;;;;;;;11.13;8.50;;;;;;;;;;6276336;22;20139;-61
2021/10/26 03:45:49;;;;;;;11.50;8.30;;;;;;;;;;6276460;22;20150;-62
2021/10/26 03:48:15;;;;;;;11.13;8.93;;;;;;;;;;6276511;22;20590;-62
2021/10/26 03:50:41;;;;;;;12.05;8.75;;;;;;;;;;6276404;22;20147;-61
2021/10/26 03:53:07;;;;;;;11.38;8.60;;;;;;;;;;6276162;22;20150;-62
2021/10/26 03:55:33;;;;;;;11.63;8.90;;;;;;;;;;6276391;22;20171;-61
2021/10/26 03:57:59;;;;;;;12.32;8.55;;;;;;;;;;6276514;22;20143;-62
2021/10/26 04:00:25;;;;;;;13.45;8.95;;;;;;;;;;6276166;22;20280;-62
2021/10/26 04:02:51;;;;;;;11.80;9.07;;;;;;;;;;6276521;22;20147;-60
2021/10/26 04:05:22;;;;;;;12.77;9.10;;;;;;;;;;6276382;22;20143;-62
2021/10/26 04:08:01;;;;;;;13.50;9.10;;;;;;;;;;6276177;22;20653;-62
2021/10/26 04:10:33;;;;;;;14.25;8.70;;;;;;;;;;6276416;22;20128;-62
2021/10/26 04:13:02;;;;;;;13.93;10.18;;;;;;;;;;6276217;22;20474;-62
2021/10/26 04:15:28;;;;;;;11.90;9.18;;;;;;;;;;6278328;22;20247;-62
2021/10/26 04:17:54;;;;;;;12.45;8.93;;;;;;;;;;6278440;22;20147;-62
2021/10/26 04:20:20;;;;;;;13.70;9.30;;;;;;;;;;6278091;22;20150;-61
2021/10/26 04:22:46;;;;;;;13.25;9.40;;;;;;;;;;6277998;22;20242;-62
2021/10/26 04:25:12;;;;;;;14.30;9.27;;;;;;;;;;6278260;22;20178;-62
2021/10/26 04:27:38;;;;;;;15.15;9.63;;;;;;;;;;6278213;22;20171;-62
2021/10/26 04:30:04;;;;;;;15.57;9.50;;;;;;;;;;6278091;22;20140;-61
2021/10/26 04:32:31;;;;;;;15.10;10.07;;;;;;;;;;6278135;22;20166;-63
2021/10/26 04:34:57;;;;;;;13.15;9.27;;;;;;;;;;6278233;22;20559;-59
2021/10/26 04:37:23;;;;;;;12.60;9.65;;;;;;;;;;6278048;22;20154;-60
2021/10/26 04:39:49;;;;;;;13.77;9.55;;;;;;;;;;6277930;22;20144;-61
2021/10/26 04:42:15;;;;;;;14.07;9.50;;;;;;;;;;6278297;22;20139;-61
2021/10/26 04:44:41;;;;;;;15.27;9.82;;;;;;;;;;6278053;22;20562;-61
2021/10/26 04:47:07;;;;;;;17.40;10.75;;;;;;;;;;6278669;22;20187;-61
2021/10/26 04:49:33;;;;;;;13.27;9.70;;;;;;;;;;6277969;22;20570;-61
2021/10/26 04:52:01;;;;;;;16.38;10.98;;;;;;;;;;6277884;22;20175;-61
2021/10/26 04:54:28;;;;;;;16.05;10.95;;;;;;;;;;6278179;22;20144;-61
2021/10/26 04:56:54;;;;;;;15.13;11.40;;;;;;;;;;6277772;22;20548;-61
2021/10/26 04:59:20;;;;;;;17.95;11.02;;;;;;;;;;6278103;22;20393;-62
2021/10/26 05:01:45;;;;;;;15.90;11.30;;;;;;;;;;6278124;22;20140;-62
2021/10/26 05:04:11;;;;;;;17.98;11.85;;;;;;;;;;6277736;22;20146;-62
2021/10/26 05:06:37;;;;;;;15.43;11.05;;;;;;;;;;6277796;22;20142;-62
2021/10/26 05:09:04;;;;;;;17.48;11.38;;;;;;;;;;6277565;22;20575;-62
2021/10/26 05:11:30;;;;;;;18.33;11.65;;;;;;;;;;6278255;22;20155;-61
2021/10/26 05:13:56;;;;;;;17.20;10.90;;;;;;;;;;6278006;22;20146;-62
2021/10/26 05:16:22;;;;;;;16.98;11.43;;;;;;;;;;6277962;22;20570;-61
2021/10/26 05:18:51;;;;;;;15.32;11.45;;;;;;;;;;6277948;22;20144;-61
2021/10/26 05:21:21;;;;;;;15.02;11.20;;;;;;;;;;6277503;22;20167;-61
2021/10/26 05:23:48;;;;;;;18.10;11.50;;;;;;;;;;6277570;22;20574;-61
2021/10/26 05:26:15;;;;;;;16.85;11.88;;;;;;;;;;6276943;22;20167;-61
2021/10/26 05:28:41;;;;;;;18.08;11.82;;;;;;;;;;6277511;22;20237;-62
2021/10/26 05:31:08;;;;;;;19.17;12.88;;;;;;;;;;6277355;22;20142;-62
2021/10/26 05:33:36;;;;;;;19.15;12.20;;;;;;;;;;6277359;22;20140;-62
2021/10/26 05:36:02;;;;;;;19.17;12.43;;;;;;;;;;6277964;22;20154;-62
2021/10/26 05:38:28;;;;;;;22.98;13.27;;;;;;;;;;6277616;22;20218;-62
2021/10/26 05:40:54;;;;;;;20.25;13.35;;;;;;;;;;6277135;22;20649;-62
2021/10/26 05:43:20;;;;;;;22.30;13.43;;;;;;;;;;6277720;22;20147;-61
2021/10/26 05:45:46;;;;;;;22.52;14.23;;;;;;;;;;6277353;22;20229;-63
2021/10/26 05:48:16;;;;;;;20.33;13.50;;;;;;;;;;6277602;22;20171;-62
2021/10/26 05:50:43;;;;;;;22.40;14.25;;;;;;;;;;6277413;22;20139;-61
2021/10/26 05:53:09;;;;;;;25.27;14.50;;;;;;;;;;6277488;22;20148;-60
2021/10/26 05:55:37;;;;;;;23.23;15.00;;;;;;;;;;6277356;22;20140;-62
2021/10/26 05:58:03;;;;;;;24.63;15.38;;;;;;;;;;6277425;22;20147;-61
2021/10/26 06:00:29;;;;;;;26.08;16.05;;;;;;;;;;6276774;22;20544;-62
2021/10/26 06:02:55;;;;;;;26.23;16.08;;;;;;;;;;6276987;22;20398;-62
2021/10/26 06:05:21;;;;;;;27.15;16.38;;;;;;;;;;6277207;22;20232;-62
2021/10/26 06:07:47;;;;;;;24.33;15.40;;;;;;;;;;6277036;22;20160;-62
2021/10/26 06:10:13;;;;;;;29.70;16.88;;;;;;;;;;6276593;22;20143;-61
2021/10/26 06:12:44;;;;;;;24.05;15.20;;;;;;;;;;6277056;22;20224;-62
2021/10/26 06:15:10;;;;;;;24.75;15.15;;;;;;;;;;6277054;22;20454;-62
2021/10/26 06:17:36;;;;;;;28.27;16.92;;;;;;;;;;6276709;22;20136;-61
2021/10/26 06:20:02;;;;;;;23.58;15.95;;;;;;;;;;6277217;22;20166;-61
2021/10/26 06:22:28;;;;;;;25.17;16.17;;;;;;;;;;6277004;22;20570;-62
2021/10/26 06:24:54;;;;;;;28.67;17.00;;;;;;;;;;6277038;22;20152;-61
2021/10/26 06:27:20;;;;;;;26.33;16.27;;;;;;;;;;6277292;22;20181;-61
2021/10/26 06:29:46;;;;;;;29.20;16.02;;;;;;;;;;6276697;22;20539;-61
2021/10/26 06:32:12;;;;;;;24.27;15.70;;;;;;;;;;6276550;22;20140;-61
2021/10/26 06:34:38;;;;;;;26.30;16.13;;;;;;;;;;6277129;22;20231;-62
2021/10/26 06:37:04;;;;;;;24.00;15.77;;;;;;;;;;6276727;22;20150;-61
2021/10/26 06:39:30;;;;;;;33.15;17.73;;;;;;;;;;6276722;22;20165;-62
2021/10/26 06:41:56;;;;;;;24.58;16.17;;;;;;;;;;6276644;22;20235;-62
2021/10/26 06:44:22;;;;;;;26.42;17.15;;;;;;;;;;6277182;22;20179;-62
2021/10/26 06:46:48;;;;;;;26.10;16.25;;;;;;;;;;6276482;22;20140;-61
2021/10/26 06:49:14;;;;;;;29.85;16.70;;;;;;;;;;6276923;22;20150;-62
2021/10/26 06:51:40;;;;;;;27.67;16.48;;;;;;;;;;6276487;22;20166;-61
2021/10/26 06:54:05;;;;;;;28.15;16.38;;;;;;;;;;6276266;22;20214;-62
2021/10/26 06:56:32;;;;;;;26.25;17.02;;;;;;;;;;6276615;22;20177;-61
2021/10/26 06:58:58;;;;;;;27.30;17.17;;;;;;;;;;6276321;22;20687;-62
2021/10/26 07:01:23;;;;;;;26.58;16.92;;;;;;;;;;6276194;22;20204;-62
2021/10/26 07:03:49;;;;;;;28.13;17.48;;;;;;;;;;6276615;22;20159;-62
2021/10/26 07:06:15;;;;;;;29.45;17.65;;;;;;;;;;6276274;22;20193;-61
2021/10/26 07:08:41;;;;;;;28.27;17.77;;;;;;;;;;6276499;22;20181;-62
2021/10/26 07:11:07;;;;;;;30.08;17.92;;;;;;;;;;6276528;22;20135;-62
2021/10/26 07:13:38;;;;;;;29.80;18.15;;;;;;;;;;6275943;22;20247;-62
2021/10/26 07:16:04;;;;;;;29.45;18.30;;;;;;;;;;6276017;22;20376;-62
2021/10/26 07:18:30;;;;;;;29.08;17.40;;;;;;;;;;6276173;22;20168;-62
2021/10/26 07:20:56;;;;;;;28.05;17.13;;;;;;;;;;6276825;22;20154;-62
2021/10/26 07:23:22;;;;;;;26.65;17.85;;;;;;;;;;6276276;22;20181;-63
2021/10/26 07:25:49;;;;;;;26.45;16.95;;;;;;;;;;6276626;22;20155;-62
2021/10/26 07:28:15;;;;;;;29.58;17.15;;;;;;;;;;6276414;22;20246;-62
2021/10/26 07:30:44;;;;;;;25.88;17.52;;;;;;;;;;6276402;22;20178;-61
2021/10/26 07:33:14;;;;;;;29.50;17.60;;;;;;;;;;6276662;22;20151;-61
2021/10/26 07:35:42;;;;;;;25.98;14.93;;;;;;;;;;6276498;22;20162;-61
2021/10/26 07:38:11;;;;;;;23.88;15.65;;;;;;;;;;6276698;22;20144;-61
2021/10/26 07:40:36;;;;;;;25.35;17.20;;;;;;;;;;6276949;22;20193;-61
2021/10/26 07:43:02;;;;;;;29.17;19.13;;;;;;;;;;6277168;22;20155;-61
2021/10/26 07:45:28;;;;;;;28.73;17.23;;;;;;;;;;6276870;22;20143;-61
2021/10/26 07:47:55;;;;;;;25.23;17.40;;;;;;;;;;6276279;22;20269;-61
2021/10/26 07:50:21;;;;;;;31.17;19.38;;;;;;;;;;6276893;22;20163;-61
2021/10/26 07:52:47;;;;;;;32.20;19.08;;;;;;;;;;6276692;22;20543;-61
2021/10/26 07:55:14;;;;;;;30.95;19.58;;;;;;;;;;6276723;22;20143;-61
2021/10/26 07:57:40;;;;;;;29.30;19.00;;;;;;;;;;6277061;22;20437;-61
2021/10/26 08:00:06;;;;;;;30.75;19.02;;;;;;;;;;6277015;22;20227;-61
2021/10/26 08:02:32;;;;;;;33.38;19.55;;;;;;;;;;6276487;22;20171;-61
2021/10/26 08:04:58;;;;;;;31.35;18.65;;;;;;;;;;6276556;22;20139;-61
2021/10/26 08:07:24;;;;;;;26.40;18.67;;;;;;;;;;6276598;22;20179;-61
2021/10/26 08:09:52;;;;;;;27.67;17.60;;;;;;;;;;6276602;22;20200;-61
2021/10/26 08:12:19;;;;;;;32.75;20.33;;;;;;;;;;6276516;22;20218;-61
2021/10/26 08:14:45;;;;;;;26.10;16.70;;;;;;;;;;6276457;22;20575;-61
2021/10/26 08:17:11;;;;;;;28.02;17.73;;;;;;;;;;6276940;22;20147;-61
2021/10/26 08:19:37;;;;;;;26.05;17.20;;;;;;;;;;6276554;22;20163;-61
2021/10/26 08:22:10;;;;;;;23.35;15.50;;;;;;;;;;6276395;22;20835;-60
2021/10/26 08:24:37;;;;;;;27.30;16.27;;;;;;;;;;6276705;22;20149;-61
2021/10/26 08:27:04;;;;;;;21.27;15.20;;;;;;;;;;6276119;22;20178;-61
2021/10/26 08:30:27;;;;;;;19.50;14.27;;;;;;;;;;6276101;22;20560;-61
2021/10/26 08:32:46;;;;;;;21.15;14.55;;;;;;;;;;6254693;22;20476;-61
2021/10/26 08:35:31;;;;;;;20.17;13.77;;;;;;;;;;6276346;22;20578;-61
2021/10/26 08:38:01;;;;;;;18.52;12.65;;;;;;;;;;6276158;22;20136;-61
2021/10/26 08:40:28;;;;;;;15.85;12.50;;;;;;;;;;6276579;22;20468;-60
2021/10/26 08:42:57;;;;;;;16.30;12.52;;;;;;;;;;6277923;22;20161;-62
2021/10/26 08:45:23;;;;;;;14.90;11.55;;;;;;;;;;6277587;22;20292;-61
2021/10/26 08:47:50;;;;;;;18.20;12.27;;;;;;;;;;6276270;22;20171;-61
2021/10/26 08:50:18;;;;;;;17.70;12.85;;;;;;;;;;6276362;22;20140;-61
2021/10/26 08:52:44;;;;;;;15.75;11.65;;;;;;;;;;6276429;22;20151;-61
2021/10/26 08:55:10;;;;;;;21.20;13.00;;;;;;;;;;6276332;22;20413;-61
2021/10/26 08:57:36;;;;;;;16.10;12.13;;;;;;;;;;6275792;22;20438;-61
2021/10/26 09:00:09;;;;;;;17.00;12.02;;;;;;;;;;6276502;22;20144;-60
2021/10/26 09:02:46;;;;;;;19.75;12.98;;;;;;;;;;6277898;22;20170;-60
2021/10/26 09:05:15;;;;;;;20.00;12.73;;;;;;;;;;6277923;22;20543;-61
2021/10/26 09:07:41;;;;;;;17.10;12.38;;;;;;;;;;6277336;22;20481;-62
2021/10/26 09:10:27;;;;;;;18.52;13.20;;;;;;;;;;6277871;22;20221;-61
2021/10/26 09:18:37;;;;;;;18.40;13.50;;;;;;;;;;6277522;22;20196;-61
2021/10/26 09:21:03;;;;;;;18.70;13.25;;;;;;;;;;6278008;22;20718;-60
2021/10/26 09:23:29;;;;;;;20.20;13.00;;;;;;;;;;6277867;22;20226;-62
2021/10/26 09:25:57;;;;;;;17.80;12.40;;;;;;;;;;6277256;22;20237;-62
2021/10/26 09:28:23;;;;;;;18.92;13.07;;;;;;;;;;6277652;22;20234;-62
2021/10/26 09:31:18;;;;;;;16.83;10.90;;;;;;;;;;6277801;22;20231;-60
2021/10/26 09:33:44;;;;;;;14.63;11.30;;;;;;;;;;6257887;22;20148;-61
2021/10/26 09:36:23;;;;;;;17.08;11.77;;;;;;;;;;6277536;22;20136;-61
2021/10/26 09:39:04;;;;;;;15.82;11.25;;;;;;;;;;6277901;22;20229;-61
2021/10/26 09:41:49;;;;;;;17.08;11.88;;;;;;;;;;6278023;22;20173;-61
2021/10/26 09:44:16;;;;;;;15.25;10.90;;;;;;;;;;6278243;22;20201;-61
2021/10/26 09:46:50;;;;;;;15.82;11.52;;;;;;;;;;6278347;22;20423;-61
2021/10/26 09:49:23;;;;;;;15.18;11.75;;;;;;;;;;6277364;22;20155;-61
2021/10/26 09:51:50;;;;;;;16.08;11.95;;;;;;;;;;6277265;22;20146;-61
2021/10/26 09:54:16;;;;;;;14.07;10.07;;;;;;;;;;6277343;22;20147;-61
2021/10/26 09:57:01;;;;;;;16.67;11.85;;;;;;;;;;6277434;22;20228;-60
2021/10/26 09:59:27;;;;;;;17.05;11.43;;;;;;;;;;6277873;22;20135;-61
2021/10/26 10:01:53;;;;;;;16.17;11.27;;;;;;;;;;6277708;22;20452;-61
2021/10/26 10:04:27;;;;;;;16.33;11.85;;;;;;;;;;6277503;22;20139;-61
2021/10/26 10:06:53;;;;;;;14.77;11.52;;;;;;;;;;6276904;22;20144;-61
2021/10/26 10:09:20;;;;;;;19.00;12.60;;;;;;;;;;6277232;22;20205;-60
2021/10/26 10:12:16;;;;;;;14.82;11.05;;;;;;;;;;6276953;22;20142;-61
2021/10/26 10:14:43;;;;;;;15.68;11.63;;;;;;;;;;6257618;22;20152;-61
2021/10/26 10:17:10;;;;;;;18.33;12.55;;;;;;;;;;6277380;22;20218;-61
2021/10/26 10:19:37;;;;;;;14.40;10.63;;;;;;;;;;6276944;22;20161;-61
2021/10/26 10:22:06;;;;;;;16.02;11.38;;;;;;;;;;6277350;22;20173;-61
2021/10/26 10:24:34;;;;;;;15.18;10.98;;;;;;;;;;6276886;22;20178;-61
2021/10/26 10:27:00;;;;;;;16.45;11.82;;;;;;;;;;6276739;22;20152;-61
2021/10/26 10:29:26;;;;;;;16.52;10.70;;;;;;;;;;6276609;22;20140;-61
2021/10/26 10:31:52;;;;;;;20.02;11.43;;;;;;;;;;6277048;22;20218;-61
2021/10/26 10:34:19;;;;;;;16.40;10.80;;;;;;;;;;6276588;22;20173;-61
2021/10/26 10:36:46;;;;;;;15.88;10.73;;;;;;;;;;6276817;22;20494;-61
2021/10/26 10:39:14;;;;;;;15.10;10.68;;;;;;;;;;6276931;22;20143;-61
2021/10/26 10:41:41;;;;;;;16.20;10.98;;;;;;;;;;6276496;22;20140;-61
2021/10/26 10:44:28;;;;;;;15.32;10.65;;;;;;;;;;6277054;22;20213;-61
2021/10/26 10:47:00;;;;;;;15.85;10.57;;;;;;;;;;6276580;22;20147;-61
2021/10/26 10:49:35;;;;;;;13.75;10.43;;;;;;;;;;6276992;22;20179;-61
2021/10/26 10:52:04;;;;;;;13.65;10.70;;;;;;;;;;6276640;22;20140;-61
2021/10/26 10:54:36;;;;;;;15.85;10.85;;;;;;;;;;6276408;22;20645;-61
2021/10/26 10:57:22;;;;;;;14.77;10.70;;;;;;;;;;6276765;22;20235;-61
2021/10/26 10:59:48;;;;;;;18.00;10.18;;;;;;;;;;6276517;22;20139;-61
2021/10/26 11:02:18;;;;;;;12.98;10.10;;;;;;;;;;6276454;22;20150;-61
2021/10/26 11:04:44;;;;;;;15.25;11.13;;;;;;;;;;6276697;22;20422;-61
2021/10/26 11:07:10;;;;;;;16.80;10.00;;;;;;;;;;6276689;22;20222;-61
2021/10/26 11:09:39;;;;;;;13.32;9.43;;;;;;;;;;6276132;22;20224;-60
2021/10/26 11:12:12;;;;;;;14.75;9.43;;;;;;;;;;6276815;22;20140;-61
2021/10/26 11:14:47;;;;;;;9.68;8.25;;;;;;;;;;6276827;22;20142;-61
2021/10/26 11:17:32;;;;;;;13.32;8.00;;;;;;;;;;6276683;22;20535;-61
2021/10/26 11:19:59;;;;;;;10.98;8.48;;;;;;;;;;6276836;22;20419;-61
2021/10/26 11:22:43;;;;;;;11.30;7.30;;;;;;;;;;6277022;22;20143;-61
2021/10/26 11:25:20;;;;;;;13.43;9.20;;;;;;;;;;6276570;22;20170;-60
2021/10/26 11:27:46;;;;;;;11.65;8.77;;;;;;;;;;6276749;22;20594;-61
2021/10/26 11:30:30;;;;;;;12.63;8.65;;;;;;;;;;6276989;22;20135;-61
2021/10/26 11:33:15;;;;;;;11.38;9.13;;;;;;;;;;6277015;22;20139;-61
2021/10/26 11:35:42;;;;;;;11.13;8.50;;;;;;;;;;6276790;22;20586;-61
2021/10/26 11:38:08;;;;;;;14.02;8.63;;;;;;;;;;6277037;22;20147;-61
2021/10/26 11:40:35;;;;;;;11.52;8.43;;;;;;;;;;6276793;22;20616;-61
2021/10/26 11:43:00;;;;;;;12.90;9.57;;;;;;;;;;6277258;22;20213;-61
2021/10/26 11:45:26;;;;;;;10.85;8.48;;;;;;;;;;6276816;22;20171;-61
2021/10/26 11:47:52;;;;;;;10.60;8.18;;;;;;;;;;6277057;22;20221;-61
2021/10/26 11:50:21;;;;;;;11.10;8.20;;;;;;;;;;6276922;22;20136;-61
2021/10/26 11:52:47;;;;;;;10.52;7.53;;;;;;;;;;6277222;22;20143;-61
2021/10/26 11:55:26;;;;;;;10.73;7.43;;;;;;;;;;6276781;22;20140;-61
2021/10/26 11:57:52;;;;;;;7.80;6.53;;;;;;;;;;6276903;22;20131;-61
2021/10/26 12:00:19;;;;;;;8.43;5.70;;;;;;;;;;6276918;22;20273;-61
2021/10/26 12:02:46;;;;;;;9.05;5.68;;;;;;;;;;6276949;22;20516;-61
2021/10/26 12:05:21;;;;;;;9.30;5.85;;;;;;;;;;6277119;22;20562;-61
2021/10/26 12:07:54;;;;;;;9.45;6.10;;;;;;;;;;6276876;22;20159;-61
2021/10/26 12:10:24;;;;;;;8.60;5.35;;;;;;;;;;6277035;22;20225;-61
2021/10/26 12:12:50;;;;;;;7.13;4.90;;;;;;;;;;6277107;22;20220;-61
2021/10/26 12:15:16;;;;;;;6.43;4.40;;;;;;;;;;6276722;22;20215;-61
2021/10/26 12:17:42;;;;;;;7.22;4.07;;;;;;;;;;6276770;22;20171;-61
2021/10/26 12:20:23;;;;;;;7.60;4.95;;;;;;;;;;6276585;22;20532;-61
2021/10/26 12:22:50;;;;;;;9.05;4.05;;;;;;;;;;6277521;22;20127;-61
2021/10/26 12:25:17;;;;;;;5.63;3.80;;;;;;;;;;6276569;22;20151;-61
2021/10/26 12:27:47;;;;;;;6.72;3.90;;;;;;;;;;6276768;22;20639;-61
2021/10/26 12:30:17;;;;;;;4.05;3.65;;;;;;;;;;6276922;22;20173;-61
2021/10/26 12:32:47;;;;;;;4.70;3.28;;;;;;;;;;6276644;22;20147;-61
2021/10/26 12:35:13;;;;;;;4.97;3.80;;;;;;;;;;6277927;22;20158;-61
2021/10/26 12:37:39;;;;;;;9.48;3.50;;;;;;;;;;6278874;22;20490;-61
2021/10/26 12:40:14;;;;;;;4.82;3.20;;;;;;;;;;6278498;22;20608;-61
2021/10/26 12:42:45;;;;;;;6.65;3.42;;;;;;;;;;6278900;22;20146;-60
2021/10/26 12:45:12;;;;;;;5.13;4.10;;;;;;;;;;6278069;22;20147;-61
2021/10/26 12:47:57;;;;;;;6.32;4.07;;;;;;;;;;6278346;22;20163;-61
2021/10/26 12:50:30;;;;;;;9.93;4.20;;;;;;;;;;6278614;22;20140;-62
2021/10/26 12:53:15;;;;;;;6.93;4.20;;;;;;;;;;6278405;22;20174;-61
2021/10/26 12:55:42;;;;;;;5.53;3.80;;;;;;;;;;6278436;22;20181;-62
2021/10/26 12:58:27;;;;;;;6.97;4.22;;;;;;;;;;6278267;22;20148;-61
2021/10/26 13:00:53;;;;;;;6.60;4.45;;;;;;;;;;6278027;22;20150;-61
2021/10/26 13:03:22;;;;;;;6.82;3.90;;;;;;;;;;6277993;22;20581;-61
2021/10/26 13:05:49;;;;;;;6.20;4.55;;;;;;;;;;6277689;22;20143;-61
2021/10/26 13:08:22;;;;;;;6.00;4.45;;;;;;;;;;6278058;22;20842;-61
2021/10/26 13:10:49;;;;;;;6.90;4.28;;;;;;;;;;6277468;22;20136;-61
2021/10/26 13:13:16;;;;;;;6.13;3.92;;;;;;;;;;6277645;22;20535;-61
2021/10/26 13:15:44;;;;;;;7.13;4.13;;;;;;;;;;6278009;22;20140;-61
2021/10/26 13:18:12;;;;;;;5.32;3.80;;;;;;;;;;6278079;22;20214;-61
2021/10/26 13:20:51;;;;;;;7.20;3.70;;;;;;;;;;6277414;22;20442;-61
2021/10/26 13:23:20;;;;;;;6.88;3.50;;;;;;;;;;6277882;22;20165;-61
2021/10/26 13:25:47;;;;;;;5.70;3.42;;;;;;;;;;6250542;22;20586;-61
2021/10/26 13:28:14;;;;;;;7.05;2.85;;;;;;;;;;6277679;22;20194;-61
2021/10/26 13:30:47;;;;;;;4.28;3.13;;;;;;;;;;6277288;22;20139;-61
2021/10/26 13:33:13;;;;;;;4.97;3.00;;;;;;;;;;6277594;22;20226;-61
2021/10/26 13:35:40;;;;;;;5.25;3.03;;;;;;;;;;6277670;22;20163;-61
2021/10/26 13:38:05;;;;;;;5.28;2.88;;;;;;;;;;6277616;22;20150;-60
2021/10/26 13:40:31;;;;;;;5.40;3.20;;;;;;;;;;6277901;22;20424;-61
2021/10/26 13:42:58;;;;;;;3.72;2.63;;;;;;;;;;6277468;22;20241;-61
2021/10/26 13:45:25;;;;;;;4.32;2.58;;;;;;;;;;6278001;22;20171;-61
2021/10/26 13:47:50;;;;;;;7.03;2.92;;;;;;;;;;6277318;22;20163;-61
2021/10/26 13:50:16;;;;;;;4.53;2.63;;;;;;;;;;6277767;22;20139;-60
2021/10/26 13:52:42;;;;;;;3.42;2.95;;;;;;;;;;6276986;22;20147;-61
2021/10/26 13:55:09;;;;;;;5.57;2.90;;;;;;;;;;6277154;22;20195;-61
2021/10/26 13:57:37;;;;;;;3.58;3.03;;;;;;;;;;6277240;22;20367;-61
2021/10/26 14:00:09;;;;;;;5.05;3.17;;;;;;;;;;6277722;22;20190;-61
2021/10/26 14:02:36;;;;;;;4.45;2.90;;;;;;;;;;6277482;22;20143;-61
2021/10/26 14:05:02;;;;;;;4.70;3.38;;;;;;;;;;6277282;22;20487;-61
2021/10/26 14:07:28;;;;;;;6.70;3.78;;;;;;;;;;6276759;22;20205;-61
2021/10/26 14:09:54;;;;;;;4.45;3.00;;;;;;;;;;6276974;22;20147;-61
2021/10/26 14:12:20;;;;;;;4.15;3.38;;;;;;;;;;6277064;22;20381;-61
2021/10/26 14:14:46;;;;;;;5.57;3.20;;;;;;;;;;6276907;22;20147;-61
2021/10/26 14:17:12;;;;;;;5.30;3.60;;;;;;;;;;6277040;22;20414;-61
2021/10/26 14:19:37;;;;;;;6.18;3.88;;;;;;;;;;6276731;22;20290;-61
2021/10/26 14:22:03;;;;;;;5.40;3.38;;;;;;;;;;6276532;22;20144;-61
2021/10/26 14:24:32;;;;;;;4.22;3.53;;;;;;;;;;6276664;22;20174;-61
2021/10/26 14:26:59;;;;;;;4.88;3.50;;;;;;;;;;6276351;22;20159;-61
2021/10/26 14:29:25;;;;;;;5.38;3.47;;;;;;;;;;6276720;22;20175;-61
2021/10/26 14:31:51;;;;;;;8.05;3.55;;;;;;;;;;6276253;22;20505;-61
2021/10/26 14:34:20;;;;;;;5.63;3.75;;;;;;;;;;6276748;22;20151;-61
2021/10/26 14:39:19;;;;;;;6.65;3.72;;;;;;;;;;6276913;22;20236;-61
2021/10/26 14:52:54;;;;;;;6.50;4.72;;;;;;;;;;6276745;22;20178;-61